Time;durP1;ratioP1;P1;durP2;ratioP2;P2;SDS_P1;SDS_P2;PMS_P1;PMS_P2;Temp;Humidity;BMP_temperature;BMP_pressure;BME280_temperature;BME280_humidity;BME280_pressure;Samples;Min_cycle;Max_cycle;Signal;HPM_P1;HPM_P2
2022/06/24 00:02:23;;;;;;;5.38;1.92;;;13.80;99.90;;;;;;5033681;28;20108;-73
2022/06/24 00:04:56;;;;;;;6.05;1.45;;;14.00;99.90;;;;;;5033452;28;20098;-73
2022/06/24 00:07:23;;;;;;;;;;;14.10;99.90;;;;;;5028945;28;20018;-72
2022/06/24 00:09:50;;;;;;;3.60;1.40;;;14.20;99.90;;;;;;5052086;28;20011;-72
2022/06/24 00:12:20;;;;;;;4.60;1.45;;;14.30;99.90;;;;;;5039023;28;20014;-74
2022/06/24 00:14:59;;;;;;;2.95;1.42;;;14.40;99.90;;;;;;5031580;28;20041;-73
2022/06/24 00:17:34;;;;;;;3.38;1.05;;;14.50;99.90;;;;;;5033939;28;20029;-74
2022/06/24 00:20:07;;;;;;;4.32;1.42;;;14.60;99.90;;;;;;5032245;28;20025;-73
2022/06/24 00:22:49;;;;;;;2.15;1.17;;;14.70;99.90;;;;;;5035245;28;20056;-73
2022/06/24 00:25:24;;;;;;;7.70;1.98;;;14.80;99.90;;;;;;5031352;28;20034;-74
2022/06/24 00:28:04;;;;;;;1.80;1.20;;;14.90;99.50;;;;;;5033425;28;20013;-73
2022/06/24 00:30:50;;;;;;;7.40;1.52;;;15.10;99.00;;;;;;5035411;28;20061;-73
2022/06/24 00:33:19;;;;;;;2.03;1.15;;;15.10;98.40;;;;;;5031441;28;20025;-75
2022/06/24 00:35:52;;;;;;;5.93;1.23;;;15.20;98.30;;;;;;5032170;28;20136;-74
2022/06/24 00:38:34;;;;;;;2.63;1.10;;;15.20;97.80;;;;;;5030999;28;20021;-73
2022/06/24 00:41:10;;;;;;;4.22;1.10;;;15.30;97.30;;;;;;5033115;28;20029;-73
2022/06/24 00:43:43;;;;;;;1.88;0.70;;;15.40;97.00;;;;;;5030966;28;20017;-75
2022/06/24 00:46:26;;;;;;;2.63;1.17;;;15.50;96.70;;;;;;5034201;28;20026;-74
2022/06/24 00:48:55;;;;;;;4.55;1.10;;;15.60;97.00;;;;;;5031551;28;20029;-74
2022/06/24 00:51:31;;;;;;;5.30;1.45;;;15.60;97.00;;;;;;5028285;28;20022;-74
2022/06/24 00:54:06;;;;;;;3.58;1.05;;;15.70;96.10;;;;;;5031471;28;20075;-74
2022/06/24 00:56:34;;;;;;;1.92;1.00;;;15.80;95.50;;;;;;5030491;28;20026;-74
2022/06/24 00:59:09;;;;;;;2.83;0.80;;;15.90;95.40;;;;;;5032817;28;20029;-74
2022/06/24 01:01:41;;;;;;;2.08;1.00;;;15.90;95.00;;;;;;5030803;28;20139;-74
2022/06/24 01:04:10;;;;;;;2.20;1.00;;;16.00;94.90;;;;;;5027984;28;20033;-74
2022/06/24 01:06:44;;;;;;;3.70;0.88;;;16.00;94.80;;;;;;5030977;28;20025;-75
2022/06/24 01:09:11;;;;;;;1.80;0.80;;;16.00;94.20;;;;;;5035905;28;20282;-73
2022/06/24 01:11:44;;;;;;;2.65;0.70;;;16.10;94.10;;;;;;5030907;28;20151;-73
2022/06/24 01:14:13;;;;;;;4.40;1.33;;;16.10;93.80;;;;;;5030580;28;20056;-75
2022/06/24 01:16:41;;;;;;;1.35;0.90;;;16.10;93.60;;;;;;5031296;28;20041;-74
2022/06/24 01:19:14;;;;;;;1.67;0.90;;;16.10;93.40;;;;;;5031269;28;20506;-75
2022/06/24 01:21:41;;;;;;;;;;;16.20;93.50;;;;;;5030668;28;20021;-75
2022/06/24 01:24:23;;;;;;;1.50;0.80;;;16.30;93.00;;;;;;5030639;28;19914;-74
2022/06/24 01:26:54;;;;;;;0.98;0.80;;;16.30;93.30;;;;;;5027818;28;20018;-75
2022/06/24 01:29:22;;;;;;;2.42;0.77;;;16.30;93.40;;;;;;5035575;28;20025;-74
2022/06/24 01:31:53;;;;;;;5.55;1.02;;;16.40;93.60;;;;;;5031129;28;20033;-74
2022/06/24 01:34:22;;;;;;;1.40;0.80;;;16.50;93.60;;;;;;5031254;28;20014;-75
2022/06/24 01:36:53;;;;;;;1.52;1.17;;;16.50;93.40;;;;;;5048418;28;20021;-75
2022/06/24 01:39:23;;;;;;;2.65;0.75;;;16.70;92.80;;;;;;5045010;28;20044;-75
2022/06/24 01:41:51;;;;;;;1.52;0.85;;;16.80;92.90;;;;;;5031808;28;20059;-74
2022/06/24 01:44:19;;;;;;;2.10;0.93;;;16.90;92.40;;;;;;5031536;28;20484;-75
2022/06/24 01:46:47;;;;;;;2.13;0.82;;;16.90;92.50;;;;;;5030459;28;20026;-74
2022/06/24 01:49:15;;;;;;;2.33;0.90;;;16.90;92.10;;;;;;5029658;28;20072;-74
2022/06/24 01:51:45;;;;;;;3.45;0.93;;;17.00;91.80;;;;;;5030680;28;20666;-74
2022/06/24 01:54:13;;;;;;;2.45;0.60;;;17.10;92.20;;;;;;5024413;28;20042;-74
2022/06/24 01:56:41;;;;;;;1.63;1.00;;;17.30;92.40;;;;;;5036979;28;20048;-75
2022/06/24 01:59:08;;;;;;;2.45;0.80;;;17.50;92.80;;;;;;5053013;28;20053;-73
2022/06/24 02:01:35;;;;;;;1.17;0.70;;;17.50;91.60;;;;;;5038866;28;20056;-72
2022/06/24 02:04:03;;;;;;;2.72;0.95;;;17.70;91.40;;;;;;5053611;28;20033;-72
2022/06/24 02:06:30;;;;;;;3.33;1.05;;;17.70;91.00;;;;;;5053724;28;20577;-72
2022/06/24 02:08:58;;;;;;;2.58;0.80;;;17.80;90.90;;;;;;5052876;28;20029;-73
2022/06/24 02:14:13;;;;;;;2.28;0.95;;;17.90;90.50;;;;;;5034224;28;20079;-72
2022/06/24 02:16:40;;;;;;;2.03;0.70;;;17.80;90.60;;;;;;5057404;28;20056;-73
2022/06/24 02:19:08;;;;;;;3.58;0.90;;;17.80;90.60;;;;;;5069193;28;20023;-73
2022/06/24 02:21:36;;;;;;;1.52;0.77;;;17.80;90.70;;;;;;5054192;28;20063;-72
2022/06/24 02:24:04;;;;;;;3.58;1.17;;;17.90;90.70;;;;;;5054447;28;20025;-72
2022/06/24 02:26:32;;;;;;;1.08;0.70;;;18.00;90.20;;;;;;5051522;28;20039;-73
2022/06/24 02:28:59;;;;;;;2.75;0.88;;;18.00;90.00;;;;;;5053051;28;20104;-72
2022/06/24 02:31:26;;;;;;;1.42;1.05;;;18.10;89.00;;;;;;5044263;28;20109;-73
2022/06/24 02:33:54;;;;;;;1.95;0.93;;;18.10;89.00;;;;;;5029811;28;20029;-73
2022/06/24 02:36:21;;;;;;;1.33;0.80;;;18.30;89.30;;;;;;5030515;28;20044;-73
2022/06/24 02:38:48;;;;;;;3.72;1.25;;;18.40;89.00;;;;;;5044966;28;20021;-73
2022/06/24 02:41:16;;;;;;;2.65;1.05;;;18.40;89.10;;;;;;5029267;28;20025;-73
2022/06/24 02:43:43;;;;;;;2.60;1.13;;;18.40;88.80;;;;;;5029350;28;20029;-73
2022/06/24 02:46:17;;;;;;;2.45;1.13;;;18.70;88.70;;;;;;5029685;28;20018;-73
2022/06/24 02:48:46;;;;;;;3.55;1.10;;;18.90;88.60;;;;;;5030146;28;20096;-73
2022/06/24 02:51:15;;;;;;;3.00;1.58;;;19.10;88.10;;;;;;5031197;28;20091;-72
2022/06/24 02:53:46;;;;;;;3.97;1.10;;;19.30;87.00;;;;;;5047173;28;20060;-73
2022/06/24 02:56:14;;;;;;;3.72;1.27;;;19.30;87.40;;;;;;5031096;28;20021;-73
2022/06/24 02:58:42;;;;;;;4.97;0.98;;;19.30;86.90;;;;;;5031660;28;20024;-73
2022/06/24 03:01:10;;;;;;;3.78;1.20;;;19.50;86.20;;;;;;5029103;28;20034;-73
2022/06/24 03:03:38;;;;;;;3.83;1.45;;;19.20;86.20;;;;;;5032629;28;20017;-73
2022/06/24 03:06:06;;;;;;;3.05;1.20;;;18.90;86.70;;;;;;5032623;28;20029;-73
2022/06/24 03:08:34;;;;;;;4.60;1.10;;;18.80;87.50;;;;;;5031553;28;20028;-72
2022/06/24 03:11:01;;;;;;;4.82;1.52;;;18.90;87.60;;;;;;5032163;28;20021;-72
2022/06/24 03:13:29;;;;;;;2.67;1.40;;;19.20;87.20;;;;;;5029784;28;20411;-73
2022/06/24 03:15:56;;;;;;;2.97;0.90;;;19.50;87.60;;;;;;5031778;28;20029;-72
2022/06/24 03:18:24;;;;;;;2.10;1.20;;;19.70;85.90;;;;;;5032927;28;20079;-73
2022/06/24 03:20:51;;;;;;;2.67;0.90;;;19.90;85.50;;;;;;5032569;28;20021;-73
2022/06/24 03:23:19;;;;;;;2.35;0.80;;;20.00;84.40;;;;;;5032118;28;20022;-73
2022/06/24 03:25:46;;;;;;;2.60;0.88;;;20.30;84.50;;;;;;5036920;28;20035;-73
2022/06/24 03:28:14;;;;;;;1.52;0.68;;;20.40;82.70;;;;;;5037406;28;20096;-72
2022/06/24 03:30:42;;;;;;;1.58;0.70;;;20.40;83.20;;;;;;5031925;28;20071;-72
2022/06/24 03:33:09;;;;;;;1.23;0.85;;;20.60;82.00;;;;;;5030217;28;20017;-73
2022/06/24 03:35:37;;;;;;;1.17;0.70;;;20.80;81.00;;;;;;5028175;28;20018;-73
2022/06/24 03:38:04;;;;;;;1.20;0.70;;;21.00;80.70;;;;;;5032985;28;20490;-72
2022/06/24 03:40:31;;;;;;;4.38;0.55;;;21.10;80.60;;;;;;5032863;28;20151;-73
2022/06/24 03:42:59;;;;;;;3.20;0.70;;;21.20;80.00;;;;;;5030579;28;20067;-73
2022/06/24 03:45:26;;;;;;;1.75;0.60;;;21.00;79.60;;;;;;5068778;28;21629;-71
2022/06/24 03:47:53;;;;;;;1.70;0.70;;;20.70;80.20;;;;;;5049007;28;20116;-71
2022/06/24 03:50:21;;;;;;;2.72;0.80;;;20.30;80.50;;;;;;5036510;28;20175;-71
2022/06/24 03:52:48;;;;;;;4.95;0.95;;;20.00;82.20;;;;;;5036474;28;20509;-72
2022/06/24 03:55:15;;;;;;;2.00;0.90;;;19.80;83.20;;;;;;5031965;28;20053;-76
2022/06/24 03:57:43;;;;;;;4.72;1.00;;;19.70;83.20;;;;;;5038026;28;20025;-73
2022/06/24 04:00:10;;;;;;;4.40;0.98;;;19.60;84.20;;;;;;5051488;28;20366;-71
2022/06/24 04:02:40;;;;;;;4.10;0.70;;;19.60;83.90;;;;;;5047081;28;20366;-72
2022/06/24 04:05:09;;;;;;;3.67;1.00;;;19.50;84.50;;;;;;5032054;28;20036;-72
2022/06/24 04:07:36;;;;;;;3.90;0.88;;;19.50;84.70;;;;;;5020431;28;20061;-73
2022/06/24 04:10:04;;;;;;;1.73;0.70;;;19.40;85.40;;;;;;5027368;28;20053;-72
2022/06/24 04:12:31;;;;;;;3.63;0.93;;;19.30;85.10;;;;;;5031610;28;20401;-71
2022/06/24 04:15:14;;;;;;;3.45;1.00;;;19.10;85.70;;;;;;5031791;28;20362;-72
2022/06/24 04:17:43;;;;;;;1.55;0.88;;;19.10;87.00;;;;;;5046784;28;20023;-73
2022/06/24 04:20:11;;;;;;;2.42;0.85;;;18.80;86.20;;;;;;5051532;28;20025;-72
2022/06/24 04:22:38;;;;;;;1.10;0.88;;;18.70;87.00;;;;;;5049173;28;20028;-74
2022/06/24 04:25:06;;;;;;;1.23;0.63;;;18.50;86.90;;;;;;5050464;28;20059;-72
2022/06/24 04:27:33;;;;;;;3.08;1.00;;;18.40;86.70;;;;;;5051171;28;20017;-72
2022/06/24 04:30:02;;;;;;;2.55;0.90;;;18.30;87.00;;;;;;5051292;28;20037;-72
2022/06/24 04:32:30;;;;;;;1.80;0.80;;;18.20;86.90;;;;;;5052195;28;20021;-73
2022/06/24 04:34:57;;;;;;;2.63;0.80;;;18.10;87.10;;;;;;5067788;28;20025;-73
2022/06/24 04:37:25;;;;;;;3.17;0.90;;;18.10;87.90;;;;;;5047714;28;20013;-73
2022/06/24 04:39:52;;;;;;;2.85;0.98;;;18.00;88.00;;;;;;5036470;28;20028;-72
2022/06/24 04:42:21;;;;;;;2.40;0.90;;;18.00;88.20;;;;;;5050093;28;20025;-73
2022/06/24 04:44:48;;;;;;;3.72;0.95;;;17.90;88.70;;;;;;5051421;28;20036;-74
2022/06/24 04:47:15;;;;;;;2.33;1.58;;;17.90;89.50;;;;;;5041163;28;20037;-73
2022/06/24 04:49:43;;;;;;;2.95;0.90;;;17.90;88.60;;;;;;5044548;28;20114;-72
2022/06/24 04:52:10;;;;;;;3.60;0.93;;;17.80;89.60;;;;;;5048508;28;20501;-74
2022/06/24 04:54:37;;;;;;;2.38;0.70;;;17.70;89.40;;;;;;5045784;28;20041;-74
2022/06/24 04:57:05;;;;;;;1.65;0.90;;;17.60;89.60;;;;;;5030926;28;20463;-73
2022/06/24 04:59:32;;;;;;;2.88;1.02;;;17.60;90.00;;;;;;5030382;28;20040;-74
2022/06/24 05:02:00;;;;;;;4.55;1.00;;;17.60;90.20;;;;;;5032773;28;20029;-72
2022/06/24 05:04:27;;;;;;;2.70;0.82;;;17.50;90.20;;;;;;5030843;28;20028;-73
2022/06/24 05:06:55;;;;;;;2.03;0.70;;;17.50;90.30;;;;;;5030860;28;20025;-74
2022/06/24 05:09:22;;;;;;;4.10;1.25;;;17.50;90.40;;;;;;5026761;28;20068;-72
2022/06/24 05:11:50;;;;;;;3.75;1.10;;;17.40;90.50;;;;;;5031759;28;20032;-72
2022/06/24 05:14:18;;;;;;;3.30;1.45;;;17.40;90.20;;;;;;5030078;28;20048;-72
2022/06/24 05:16:45;;;;;;;1.75;1.13;;;17.40;90.30;;;;;;5029284;28;20031;-74
2022/06/24 05:19:13;;;;;;;2.85;1.20;;;17.40;90.30;;;;;;5046133;28;20045;-72
2022/06/24 05:21:40;;;;;;;19.88;2.03;;;17.40;90.20;;;;;;5030382;28;20053;-72
2022/06/24 05:24:08;;;;;;;4.22;1.05;;;17.30;90.90;;;;;;5045108;28;20321;-72
2022/06/24 05:26:36;;;;;;;15.23;2.03;;;17.30;90.70;;;;;;5045841;28;20083;-73
2022/06/24 05:29:03;;;;;;;3.70;1.20;;;17.20;90.70;;;;;;5032199;28;20111;-69
2022/06/24 05:31:31;;;;;;;2.92;0.93;;;17.30;90.60;;;;;;5032836;28;20453;-69
2022/06/24 05:33:58;;;;;;;1.90;1.05;;;17.30;90.60;;;;;;5034771;28;20160;-70
2022/06/24 05:36:25;;;;;;;2.17;1.45;;;17.20;90.70;;;;;;5035238;28;20386;-68
2022/06/24 05:38:53;;;;;;;1.83;1.00;;;17.20;90.80;;;;;;5033142;28;20033;-71
2022/06/24 05:41:22;;;;;;;3.10;1.30;;;17.20;90.90;;;;;;5038295;28;20112;-71
2022/06/24 05:43:49;;;;;;;4.25;1.25;;;17.20;91.20;;;;;;5032490;28;20106;-69
2022/06/24 05:46:16;;;;;;;4.20;1.50;;;17.10;91.30;;;;;;5036354;28;20071;-70
2022/06/24 05:48:44;;;;;;;3.35;1.70;;;17.10;91.10;;;;;;5032982;28;20029;-69
2022/06/24 05:51:13;;;;;;;9.73;1.48;;;17.00;91.60;;;;;;5035433;28;20040;-69
2022/06/24 05:56:26;;;;;;;8.50;1.70;;;17.00;92.10;;;;;;5028642;28;20068;-70
2022/06/24 05:58:53;;;;;;;4.10;1.80;;;17.00;92.40;;;;;;5033643;28;20095;-70
2022/06/24 06:01:21;;;;;;;4.57;1.63;;;16.90;92.40;;;;;;5029622;28;20373;-71
2022/06/24 06:03:48;;;;;;;4.18;1.42;;;16.80;92.40;;;;;;5035664;28;20108;-70
2022/06/24 06:06:16;;;;;;;1.90;0.82;;;16.70;92.40;;;;;;5033461;28;20115;-71
2022/06/24 06:08:46;;;;;;;2.70;1.02;;;16.70;91.10;;;;;;5029673;28;20024;-81
2022/06/24 06:11:22;;;;;;;2.95;1.13;;;16.80;90.90;;;;;;5051194;28;20429;-76
2022/06/24 06:13:53;;;;;;;1.98;0.93;;;16.90;91.10;;;;;;5062777;28;20021;-76
2022/06/24 06:16:22;;;;;;;3.90;1.10;;;16.80;91.40;;;;;;5030024;28;20025;-75
2022/06/24 06:18:50;;;;;;;3.00;1.00;;;16.80;92.20;;;;;;5049184;28;20025;-78
2022/06/24 06:21:18;;;;;;;1.30;0.85;;;16.80;93.00;;;;;;5048839;28;20026;-77
2022/06/24 06:23:47;;;;;;;3.40;1.60;;;16.80;93.60;;;;;;5033651;28;20029;-78
2022/06/24 06:26:14;;;;;;;4.10;0.93;;;16.60;93.80;;;;;;5049959;28;20691;-76
2022/06/24 06:28:42;;;;;;;3.40;1.10;;;16.50;93.90;;;;;;5045580;28;20034;-77
2022/06/24 06:31:11;;;;;;;2.95;1.40;;;16.40;93.90;;;;;;5044359;28;20037;-78
2022/06/24 06:33:38;;;;;;;3.15;1.52;;;16.40;93.90;;;;;;5049302;28;20524;-74
2022/06/24 06:36:07;;;;;;;3.55;1.45;;;16.40;93.90;;;;;;5033240;28;20048;-75
2022/06/24 06:38:35;;;;;;;14.50;2.25;;;16.30;94.00;;;;;;5029992;28;20021;-77
2022/06/24 06:41:06;;;;;;;3.40;1.08;;;16.30;94.10;;;;;;5028070;28;21135;-78
2022/06/24 06:43:33;;;;;;;10.25;2.47;;;16.20;94.10;;;;;;5044694;28;20484;-77
2022/06/24 06:46:00;;;;;;;5.60;1.70;;;16.20;94.10;;;;;;5030636;28;20022;-76
2022/06/24 06:48:28;;;;;;;5.50;1.45;;;16.20;94.00;;;;;;5046565;28;20033;-76
2022/06/24 06:50:57;;;;;;;5.63;1.80;;;16.20;94.00;;;;;;5047240;28;20127;-76
2022/06/24 06:53:25;;;;;;;4.22;1.25;;;16.10;93.70;;;;;;5032030;28;20359;-77
2022/06/24 06:55:56;;;;;;;4.85;1.65;;;16.10;93.50;;;;;;5033754;28;20045;-77
2022/06/24 06:58:24;;;;;;;6.78;1.45;;;16.00;93.30;;;;;;5046808;28;20095;-79
2022/06/24 07:00:52;;;;;;;9.27;1.95;;;16.10;93.00;;;;;;5036486;28;20052;-78
2022/06/24 07:03:20;;;;;;;5.32;1.10;;;16.10;92.70;;;;;;5033954;28;20021;-75
2022/06/24 07:05:48;;;;;;;3.53;0.90;;;16.10;92.50;;;;;;5041246;28;20116;-78
2022/06/24 07:08:16;;;;;;;2.28;0.90;;;16.10;92.10;;;;;;5032797;28;20029;-80
2022/06/24 07:10:44;;;;;;;32.83;24.92;;;16.10;92.50;;;;;;5063640;28;20513;-81
2022/06/24 07:13:16;;;;;;;10.13;6.20;;;16.10;92.40;;;;;;5033917;28;20109;-81
2022/06/24 07:15:43;;;;;;;3.30;1.95;;;16.10;92.40;;;;;;5045230;28;20025;-76
2022/06/24 07:18:11;;;;;;;4.03;1.27;;;16.10;92.30;;;;;;5034886;28;20017;-82
2022/06/24 07:20:38;;;;;;;3.40;1.30;;;16.10;91.80;;;;;;5047847;28;20386;-77
2022/06/24 07:23:29;;;;;;;4.00;1.20;;;16.20;91.60;;;;;;5034826;28;20018;-78
2022/06/24 07:26:49;;;;;;;6.68;1.75;;;16.20;91.40;;;;;;5032666;28;20068;-85
2022/06/24 07:29:19;;;;;;;4.60;1.63;;;16.20;91.30;;;;;;5038521;28;20409;-83
2022/06/24 07:31:48;;;;;;;4.53;1.70;;;16.20;91.30;;;;;;5036241;28;20095;-77
2022/06/24 07:34:18;;;;;;;5.63;2.00;;;16.20;91.50;;;;;;5050941;28;20026;-83
2022/06/24 07:36:47;;;;;;;5.03;2.65;;;16.10;91.50;;;;;;5035693;28;20640;-85
2022/06/24 07:39:15;;;;;;;3.05;1.77;;;16.10;91.50;;;;;;5049523;28;20033;-80
2022/06/24 07:41:43;;;;;;;3.05;1.30;;;16.00;91.60;;;;;;5049019;28;20044;-76
2022/06/24 07:44:10;;;;;;;3.22;1.00;;;15.90;91.80;;;;;;5036491;28;20121;-77
2022/06/24 07:46:37;;;;;;;3.90;1.30;;;15.80;92.00;;;;;;5048658;28;20061;-80
2022/06/24 07:49:05;;;;;;;3.70;1.45;;;15.70;92.00;;;;;;5031629;28;20032;-81
2022/06/24 07:51:32;;;;;;;4.00;1.55;;;15.70;92.10;;;;;;5047676;28;20492;-76
2022/06/24 07:54:00;;;;;;;4.35;1.50;;;15.70;92.20;;;;;;5047447;28;20030;-75
2022/06/24 07:59:12;;;;;;;4.72;1.88;;;15.60;92.50;;;;;;5028033;28;20033;-77
2022/06/24 08:01:39;;;;;;;3.88;1.90;;;15.50;92.60;;;;;;5031122;28;20022;-76
2022/06/24 08:04:09;;;;;;;4.05;1.83;;;15.40;92.70;;;;;;5049000;28;20037;-77
2022/06/24 08:06:42;;;;;;;6.68;1.75;;;15.40;93.00;;;;;;5048115;28;20389;-77
2022/06/24 08:09:10;;;;;;;3.15;1.83;;;15.30;93.40;;;;;;5034665;28;20063;-76
2022/06/24 08:11:38;;;;;;;6.97;3.15;;;15.20;93.50;;;;;;5033950;28;20493;-77
2022/06/24 08:14:05;;;;;;;8.80;7.30;;;15.10;93.90;;;;;;5048697;28;20032;-76
2022/06/24 08:16:41;;;;;;;8.75;7.70;;;15.10;94.10;;;;;;5033402;28;20053;-76
2022/06/24 08:19:33;;;;;;;9.50;7.68;;;15.00;94.60;;;;;;5029431;28;20044;-76
2022/06/24 08:22:00;;;;;;;12.30;7.63;;;14.90;94.90;;;;;;5047812;28;20025;-76
2022/06/24 08:24:30;;;;;;;10.30;6.22;;;14.80;95.10;;;;;;5063901;28;20406;-79
2022/06/24 08:26:57;;;;;;;6.90;5.18;;;14.70;95.30;;;;;;5033458;28;20021;-79
2022/06/24 08:29:26;;;;;;;7.10;4.38;;;14.80;95.70;;;;;;5031490;28;20017;-75
2022/06/24 08:31:57;;;;;;;5.60;4.10;;;14.60;96.20;;;;;;5046827;28;20037;-76
2022/06/24 08:34:24;;;;;;;6.45;4.72;;;14.60;96.20;;;;;;5046802;28;20021;-76
2022/06/24 08:36:52;;;;;;;6.90;4.75;;;14.50;96.40;;;;;;5060624;28;20022;-75
2022/06/24 08:39:19;;;;;;;9.30;4.97;;;14.40;96.70;;;;;;5049013;28;20017;-77
2022/06/24 08:41:51;;;;;;;7.22;5.13;;;14.30;96.80;;;;;;5028082;28;20022;-78
2022/06/24 08:44:19;;;;;;;7.45;6.03;;;14.30;97.20;;;;;;5034143;28;20557;-79
2022/06/24 08:46:49;;;;;;;5.93;3.63;;;14.20;97.30;;;;;;5027229;28;20040;-79
2022/06/24 08:49:17;;;;;;;7.35;4.47;;;14.30;96.90;;;;;;5047570;28;20060;-77
2022/06/24 08:51:47;;;;;;;8.23;5.63;;;14.10;96.80;;;;;;5037333;28;20033;-78
2022/06/24 08:54:18;;;;;;;9.68;6.47;;;14.20;96.70;;;;;;5028868;28;20518;-78
2022/06/24 08:57:01;;;;;;;8.63;6.20;;;14.20;96.80;;;;;;5028681;28;20033;-80
2022/06/24 08:59:33;;;;;;;6.65;4.85;;;14.20;96.90;;;;;;5033954;28;20067;-78
2022/06/24 09:02:00;;;;;;;7.80;4.80;;;14.10;97.30;;;;;;5047792;28;20135;-76
2022/06/24 09:04:28;;;;;;;9.65;4.22;;;14.10;97.60;;;;;;5031074;28;21253;-76
2022/06/24 09:07:02;;;;;;;7.68;4.78;;;14.00;97.40;;;;;;5033788;28;20067;-77
2022/06/24 09:09:29;;;;;;;8.98;5.40;;;14.00;97.80;;;;;;5064985;28;20018;-76
2022/06/24 09:11:57;;;;;;;12.10;6.63;;;14.00;98.00;;;;;;5033287;28;20573;-77
2022/06/24 09:14:50;;;;;;;8.00;6.18;;;13.90;97.90;;;;;;5048976;28;20032;-76
2022/06/24 09:17:17;;;;;;;8.20;5.50;;;13.90;98.20;;;;;;5030075;28;21434;-76
2022/06/24 09:19:45;;;;;;;9.68;5.72;;;13.80;98.50;;;;;;5042237;28;20037;-76
2022/06/24 09:22:20;;;;;;;7.57;4.57;;;13.80;98.80;;;;;;5046487;28;20082;-76
2022/06/24 09:24:50;;;;;;;9.10;4.90;;;13.70;98.70;;;;;;5033541;28;20025;-79
2022/06/24 09:27:27;;;;;;;11.10;7.72;;;13.60;98.60;;;;;;5033123;28;20029;-76
2022/06/24 09:29:55;;;;;;;9.30;7.20;;;13.60;98.70;;;;;;5033493;28;20118;-77
2022/06/24 09:32:22;;;;;;;9.68;6.90;;;13.50;98.80;;;;;;5033081;28;20032;-79
2022/06/24 09:35:14;;;;;;;9.50;6.60;;;13.50;99.00;;;;;;5063003;28;20514;-78
2022/06/24 09:37:47;;;;;;;8.63;5.95;;;13.50;99.30;;;;;;5036701;28;20029;-82
2022/06/24 09:40:32;;;;;;;17.98;11.68;;;13.50;99.20;;;;;;5048817;28;20029;-78
2022/06/24 09:43:05;;;;;;;11.57;7.95;;;13.40;99.20;;;;;;5068256;28;20091;-78
2022/06/24 09:45:50;;;;;;;10.15;8.00;;;13.40;99.30;;;;;;5032812;28;20033;-76
2022/06/24 09:48:29;;;;;;;14.85;7.43;;;13.30;99.50;;;;;;5030940;28;20044;-76
2022/06/24 09:51:07;;;;;;;11.48;7.57;;;13.30;99.70;;;;;;5032937;28;20565;-76
2022/06/24 09:53:37;;;;;;;12.23;8.32;;;13.20;99.90;;;;;;5049606;28;20462;-76
2022/06/24 09:56:10;;;;;;;10.60;7.90;;;13.20;99.90;;;;;;5041500;28;20060;-76
2022/06/24 09:58:39;;;;;;;13.07;8.32;;;13.20;99.90;;;;;;5029643;28;20112;-76
2022/06/24 10:01:07;;;;;;;14.57;7.40;;;13.10;99.90;;;;;;5048623;28;20040;-77
2022/06/24 10:03:37;;;;;;;11.80;6.72;;;13.10;99.90;;;;;;5031234;28;20029;-76
2022/06/24 10:06:19;;;;;;;12.63;8.40;;;13.10;99.90;;;;;;5063407;28;20120;-80
2022/06/24 10:08:47;;;;;;;8.47;5.90;;;13.10;99.90;;;;;;5064471;28;20026;-76
2022/06/24 10:11:16;;;;;;;8.65;5.85;;;13.10;99.90;;;;;;5033945;28;20045;-77
2022/06/24 10:13:44;;;;;;;9.63;6.00;;;13.10;99.90;;;;;;5031730;28;20094;-76
2022/06/24 10:16:11;;;;;;;8.60;5.45;;;13.10;99.90;;;;;;5035170;28;20026;-75
2022/06/24 10:18:42;;;;;;;9.95;6.20;;;13.10;99.90;;;;;;5022102;28;20024;-77
2022/06/24 10:21:11;;;;;;;11.60;7.07;;;13.00;99.90;;;;;;5038580;28;20030;-75
2022/06/24 10:23:52;;;;;;;10.38;6.45;;;13.20;99.90;;;;;;5039289;28;20025;-75
2022/06/24 10:26:35;;;;;;;9.07;6.28;;;13.10;99.90;;;;;;5036227;28;20051;-76
2022/06/24 10:29:03;;;;;;;9.85;5.38;;;13.20;99.90;;;;;;5035312;28;20112;-76
2022/06/24 10:31:49;;;;;;;9.88;6.25;;;13.10;99.90;;;;;;5034179;28;20037;-75
2022/06/24 10:34:32;;;;;;;10.38;6.30;;;13.20;99.90;;;;;;5052328;28;20074;-75
2022/06/24 10:37:02;;;;;;;10.75;5.97;;;13.20;99.90;;;;;;5047717;28;20346;-76
2022/06/24 10:39:32;;;;;;;11.60;6.18;;;13.10;99.90;;;;;;5033939;28;20018;-76
2022/06/24 10:42:07;;;;;;;10.85;6.43;;;13.20;99.90;;;;;;5034737;28;20022;-79
2022/06/24 10:44:37;;;;;;;6.93;5.60;;;13.10;99.90;;;;;;5039882;28;20021;-76
2022/06/24 10:47:07;;;;;;;9.45;5.60;;;13.10;99.90;;;;;;5040791;28;20069;-75
2022/06/24 10:49:55;;;;;;;8.75;6.28;;;13.10;99.90;;;;;;5036220;28;20013;-77
2022/06/24 10:52:34;;;;;;;11.07;6.18;;;13.10;99.90;;;;;;5034096;28;20045;-76
2022/06/24 10:55:29;;;;;;;14.98;6.55;;;13.10;99.90;;;;;;5034072;28;20034;-76
2022/06/24 10:58:06;;;;;;;8.13;5.95;;;13.10;99.90;;;;;;5029080;28;20021;-70
2022/06/24 11:00:39;;;;;;;8.63;4.43;;;13.10;99.90;;;;;;5048734;28;20032;-68
2022/06/24 11:03:07;;;;;;;9.65;4.90;;;13.20;99.80;;;;;;5040256;28;20024;-71
2022/06/24 11:05:36;;;;;;;18.77;16.77;;;13.30;99.60;;;;;;5052703;28;20022;-69
2022/06/24 11:08:14;;;;;;;16.08;13.35;;;13.20;99.80;;;;;;5045818;28;20094;-72
2022/06/24 11:10:44;;;;;;;10.80;7.10;;;13.30;99.50;;;;;;5033018;28;20037;-72
2022/06/24 11:13:11;;;;;;;7.32;5.63;;;13.20;99.50;;;;;;5032993;28;20048;-68
2022/06/24 11:15:58;;;;;;;5.45;4.03;;;13.30;99.50;;;;;;5032543;28;20470;-67
2022/06/24 11:18:33;;;;;;;9.93;5.60;;;13.30;99.40;;;;;;5039851;28;20096;-70
2022/06/24 11:21:07;;;;;;;6.40;3.58;;;13.30;99.30;;;;;;5046982;28;20334;-71
2022/06/24 11:23:37;;;;;;;7.82;4.72;;;13.30;99.40;;;;;;5052498;28;20116;-70
2022/06/24 11:26:13;;;;;;;4.75;3.50;;;13.30;99.20;;;;;;5052503;28;20025;-70
2022/06/24 11:28:45;;;;;;;4.20;3.15;;;13.40;99.20;;;;;;5017901;28;20018;-72
2022/06/24 11:31:24;;;;;;;4.70;2.63;;;13.30;99.00;;;;;;5041326;28;20127;-71
2022/06/24 11:34:08;;;;;;;3.72;2.40;;;13.40;98.80;;;;;;5067634;28;20082;-70
2022/06/24 11:36:37;;;;;;;4.57;2.35;;;13.50;98.70;;;;;;5049075;28;20010;-73
2022/06/24 11:39:09;;;;;;;5.78;2.65;;;13.60;98.40;;;;;;5047893;28;20031;-69
2022/06/24 11:41:38;;;;;;;3.15;2.10;;;13.60;98.30;;;;;;5042861;28;20044;-68
2022/06/24 11:44:05;;;;;;;4.15;2.50;;;13.60;98.20;;;;;;5034684;28;20076;-70
2022/06/24 11:46:34;;;;;;;4.82;2.20;;;13.60;98.10;;;;;;5031822;28;20021;-69
2022/06/24 11:49:14;;;;;;;8.57;3.65;;;13.60;98.10;;;;;;5033628;28;20026;-70
2022/06/24 11:51:46;;;;;;;5.25;2.97;;;13.60;98.10;;;;;;5052153;28;20036;-71
2022/06/24 11:54:14;;;;;;;3.83;2.25;;;13.60;98.30;;;;;;5051454;28;20571;-71
2022/06/24 11:56:42;;;;;;;3.67;1.90;;;13.60;98.20;;;;;;5047122;28;20035;-71
2022/06/24 11:59:11;;;;;;;3.53;2.30;;;13.60;98.10;;;;;;5031642;28;20025;-71
2022/06/24 12:01:40;;;;;;;2.45;1.90;;;13.50;98.10;;;;;;5032066;28;20065;-69
2022/06/24 12:04:11;;;;;;;6.22;2.20;;;13.60;98.10;;;;;;5031967;28;20573;-70
2022/06/24 12:06:41;;;;;;;4.35;1.95;;;13.60;97.90;;;;;;5048218;28;20021;-72
2022/06/24 12:09:10;;;;;;;3.42;2.03;;;13.60;97.90;;;;;;5042335;28;20060;-70
2022/06/24 12:11:42;;;;;;;3.55;1.73;;;13.60;98.00;;;;;;5030612;28;20041;-71
2022/06/24 12:14:14;;;;;;;3.92;1.90;;;13.50;97.90;;;;;;5042699;28;20507;-73
2022/06/24 12:16:59;;;;;;;3.13;1.65;;;13.50;97.90;;;;;;5046340;28;20033;-73
2022/06/24 12:19:29;;;;;;;4.60;2.30;;;13.50;98.00;;;;;;5031389;28;20018;-71
2022/06/24 12:22:07;;;;;;;5.00;2.30;;;13.50;98.30;;;;;;5028822;28;20497;-72
2022/06/24 12:24:35;;;;;;;4.82;2.30;;;13.30;98.50;;;;;;5067685;28;20027;-72
2022/06/24 12:27:04;;;;;;;2.97;1.88;;;13.30;98.80;;;;;;5036249;28;20398;-71
2022/06/24 12:29:33;;;;;;;4.80;2.30;;;13.20;99.00;;;;;;5030741;28;20375;-71
2022/06/24 12:32:03;;;;;;;4.93;2.67;;;13.20;99.10;;;;;;5031655;28;20056;-71
2022/06/24 12:34:33;;;;;;;5.63;2.78;;;13.10;99.40;;;;;;5035670;28;20104;-70
2022/06/24 12:37:09;;;;;;;5.55;2.72;;;13.00;99.60;;;;;;5044045;28;20104;-72
2022/06/24 12:39:42;;;;;;;5.85;2.72;;;12.90;99.60;;;;;;5036261;28;20104;-70
2022/06/24 12:42:17;;;;;;;7.13;3.70;;;12.90;99.70;;;;;;5042234;28;20041;-75
2022/06/24 12:44:57;;;;;;;6.53;2.95;;;12.90;99.80;;;;;;5011714;28;20033;-72
2022/06/24 12:53:07;;;;;;;4.78;2.63;;;12.70;99.80;;;;;;5039752;28;20464;-70
2022/06/24 12:55:35;;;;;;;7.93;4.97;;;12.70;99.80;;;;;;5066464;28;20557;-72
2022/06/24 12:58:02;;;;;;;7.68;5.57;;;12.70;99.90;;;;;;5050424;28;20029;-71
2022/06/24 13:00:30;;;;;;;7.05;3.58;;;12.80;99.70;;;;;;5048140;28;20027;-71
2022/06/24 13:02:59;;;;;;;2.88;2.10;;;12.80;99.60;;;;;;5051594;28;20032;-70
2022/06/24 13:05:28;;;;;;;3.20;2.22;;;12.80;99.40;;;;;;5053618;28;20044;-70
2022/06/24 13:07:56;;;;;;;2.95;1.60;;;12.80;99.20;;;;;;5054068;28;20032;-70
2022/06/24 13:10:23;;;;;;;3.58;2.10;;;12.90;99.10;;;;;;5050837;28;20029;-71
2022/06/24 13:12:53;;;;;;;2.70;1.80;;;13.00;99.00;;;;;;5051897;28;20045;-72
2022/06/24 13:15:23;;;;;;;2.53;1.40;;;13.00;98.90;;;;;;5054385;28;20017;-72
2022/06/24 13:17:51;;;;;;;3.72;1.40;;;13.10;98.80;;;;;;5051654;28;20105;-72